createdAt,value
2018-07-24T11:35:43.180Z,24.10
2018-07-24T11:38:13.980Z,24.00
2018-07-24T11:40:44.306Z,23.90
2018-07-24T11:43:14.589Z,23.80
2018-07-24T11:45:44.991Z,23.80
2018-07-24T11:48:15.514Z,23.80
2018-07-24T11:50:45.908Z,23.80
2018-07-24T11:53:16.216Z,23.70
2018-07-24T11:55:47.213Z,23.70
2018-07-24T11:58:17.525Z,23.60
2018-07-24T12:00:47.918Z,23.60
2018-07-24T12:03:18.182Z,23.50
2018-07-24T12:05:48.611Z,23.50
2018-07-24T12:08:18.926Z,23.40
2018-07-24T12:10:49.226Z,23.40
2018-07-24T12:13:19.564Z,23.30
2018-07-24T12:15:49.870Z,23.30
2018-07-24T12:18:20.191Z,23.30
2018-07-24T12:20:51.361Z,23.20
2018-07-24T12:23:21.667Z,23.10
2018-07-24T12:25:52.084Z,23.10
2018-07-24T12:28:22.476Z,23.10
2018-07-24T12:30:53.765Z,23.00
2018-07-24T12:33:24.062Z,23.00
2018-07-24T12:35:54.869Z,23.00
2018-07-24T12:38:25.271Z,23.00
2018-07-24T12:40:55.572Z,22.90
2018-07-24T12:43:25.940Z,22.90
2018-07-24T12:45:56.294Z,22.90
2018-07-24T12:48:26.573Z,22.80
2018-07-24T12:50:56.870Z,22.80
2018-07-24T12:53:27.191Z,22.80
2018-07-24T12:55:57.518Z,22.90
2018-07-24T12:58:27.856Z,23.00
2018-07-24T13:00:58.181Z,23.00
2018-07-24T13:03:28.479Z,23.10
2018-07-24T13:05:58.861Z,23.30
2018-07-24T13:08:29.228Z,23.30
2018-07-24T13:10:59.632Z,23.40
2018-07-24T13:13:30.817Z,23.40
2018-07-24T13:16:02.134Z,23.50
2018-07-24T13:18:32.464Z,23.50
2018-07-24T13:21:02.833Z,23.50
2018-07-24T13:23:33.155Z,23.50
2018-07-24T13:26:03.438Z,23.50
2018-07-24T13:28:33.755Z,23.50
2018-07-24T13:31:04.144Z,23.50
2018-07-24T13:33:34.569Z,23.50
2018-07-24T13:36:05.189Z,23.50
2018-07-24T13:38:35.484Z,23.50
2018-07-24T13:41:09.484Z,23.50
2018-07-24T13:43:39.867Z,23.50
2018-07-24T13:46:10.234Z,23.50
2018-07-24T13:48:40.529Z,23.50
2018-07-24T13:51:11.207Z,23.50
2018-07-24T13:53:41.515Z,23.50
2018-07-24T13:56:11.885Z,23.50
2018-07-24T13:58:42.209Z,23.50
2018-07-24T14:01:12.511Z,23.50
2018-07-24T14:03:42.826Z,23.60
2018-07-24T14:06:13.261Z,23.50
2018-07-24T14:08:43.553Z,23.60
2018-07-24T14:11:13.942Z,23.60
2018-07-24T14:13:45.351Z,23.60
2018-07-24T14:16:15.695Z,23.60
2018-07-24T14:18:46.101Z,23.70
2018-07-24T14:21:16.442Z,23.70
2018-07-24T14:23:46.759Z,23.70
2018-07-24T14:26:17.102Z,23.70
2018-07-24T14:28:47.441Z,23.70
2018-07-24T14:31:17.844Z,23.60
2018-07-24T14:33:48.195Z,23.60
2018-07-24T14:36:18.887Z,23.50
2018-07-24T14:38:49.240Z,23.40
2018-07-24T14:41:19.617Z,23.30
2018-07-24T14:43:50.178Z,23.10
2018-07-24T14:46:20.553Z,23.10
2018-07-24T14:48:51.056Z,23.00
2018-07-24T14:51:21.384Z,22.90
2018-07-24T14:53:51.690Z,22.90
2018-07-24T14:56:22.021Z,22.90
2018-07-24T14:58:52.503Z,22.90
2018-07-24T15:01:22.876Z,22.90
2018-07-24T15:03:53.250Z,22.90
2018-07-24T15:06:23.632Z,22.80
2018-07-24T15:09:00.669Z,22.70
2018-07-24T15:14:00.571Z,22.60
2018-07-24T15:16:30.915Z,22.50
2018-07-24T15:19:01.226Z,22.50
2018-07-24T15:24:01.395Z,22.50
2018-07-24T15:26:31.733Z,22.60
2018-07-24T15:29:02.587Z,22.60
2018-07-24T15:31:32.961Z,22.80
2018-07-24T15:34:03.345Z,22.80
2018-07-24T15:36:34.053Z,22.90
2018-07-24T15:39:04.934Z,23.00
2018-07-24T15:41:37.013Z,23.00
2018-07-24T15:44:07.342Z,23.00
2018-07-24T15:46:37.777Z,23.00
2018-07-24T15:49:08.168Z,23.10
2018-07-24T15:51:38.474Z,23.10
2018-07-24T15:54:08.822Z,23.10
2018-07-24T15:56:39.141Z,23.20
2018-07-24T15:59:09.504Z,23.20
2018-07-24T16:01:39.932Z,23.20
2018-07-24T16:04:10.259Z,23.30
2018-07-24T16:06:40.632Z,23.30
2018-07-24T16:09:13.252Z,23.30
2018-07-24T16:11:43.637Z,23.40
2018-07-24T16:14:13.941Z,23.40
2018-07-24T16:16:44.269Z,23.50
2018-07-24T16:19:14.621Z,23.50
2018-07-24T16:21:44.982Z,23.50
2018-07-24T16:24:15.302Z,23.50
2018-07-24T16:26:45.637Z,23.50
2018-07-24T16:29:15.922Z,23.50
2018-07-24T16:31:46.390Z,23.60
2018-07-24T16:34:16.768Z,23.60
2018-07-24T16:36:47.644Z,23.60
2018-07-24T16:39:18.018Z,23.60
